sensor_id;sensor_type;location;lat;lon;timestamp;temperature;humidity
19348;DHT22;9810;52.480;9.806;2022-09-29T00:02:27;6.90;99.90
19348;DHT22;9810;52.480;9.806;2022-09-29T00:04:54;7.00;99.90
19348;DHT22;9810;52.480;9.806;2022-09-29T00:07:21;6.80;99.90
19348;DHT22;9810;52.480;9.806;2022-09-29T00:09:48;6.50;99.90
19348;DHT22;9810;52.480;9.806;2022-09-29T00:12:15;6.30;99.90
19348;DHT22;9810;52.480;9.806;2022-09-29T00:14:42;6.30;99.90
19348;DHT22;9810;52.480;9.806;2022-09-29T00:17:10;6.00;99.90
19348;DHT22;9810;52.480;9.806;2022-09-29T00:19:39;6.10;99.90
19348;DHT22;9810;52.480;9.806;2022-09-29T00:22:07;6.00;99.90
19348;DHT22;9810;52.480;9.806;2022-09-29T00:24:34;5.90;99.90
19348;DHT22;9810;52.480;9.806;2022-09-29T00:27:02;5.80;99.90
19348;DHT22;9810;52.480;9.806;2022-09-29T00:29:28;5.80;99.90
19348;DHT22;9810;52.480;9.806;2022-09-29T00:31:59;5.80;99.90
19348;DHT22;9810;52.480;9.806;2022-09-29T00:34:26;5.60;99.90
19348;DHT22;9810;52.480;9.806;2022-09-29T00:36:55;5.50;99.90
19348;DHT22;9810;52.480;9.806;2022-09-29T00:39:23;5.50;99.90
19348;DHT22;9810;52.480;9.806;2022-09-29T00:41:50;5.60;99.90
19348;DHT22;9810;52.480;9.806;2022-09-29T00:47:18;5.50;99.90
19348;DHT22;9810;52.480;9.806;2022-09-29T00:49:48;5.50;99.90
19348;DHT22;9810;52.480;9.806;2022-09-29T00:52:20;5.30;99.90
19348;DHT22;9810;52.480;9.806;2022-09-29T00:54:50;5.30;99.90
19348;DHT22;9810;52.480;9.806;2022-09-29T00:57:23;5.20;99.90
19348;DHT22;9810;52.480;9.806;2022-09-29T00:59:57;5.30;99.90
19348;DHT22;9810;52.480;9.806;2022-09-29T01:02:26;5.40;99.90
19348;DHT22;9810;52.480;9.806;2022-09-29T01:04:53;5.50;99.90
19348;DHT22;9810;52.480;9.806;2022-09-29T01:07:23;5.70;99.90
19348;DHT22;9810;52.480;9.806;2022-09-29T01:09:53;5.80;99.90
19348;DHT22;9810;52.480;9.806;2022-09-29T01:12:22;5.70;99.90
19348;DHT22;9810;52.480;9.806;2022-09-29T01:14:53;5.50;99.90
19348;DHT22;9810;52.480;9.806;2022-09-29T01:17:21;5.30;99.90
19348;DHT22;9810;52.480;9.806;2022-09-29T01:19:55;5.00;99.90
19348;DHT22;9810;52.480;9.806;2022-09-29T01:22:47;4.90;99.90
19348;DHT22;9810;52.480;9.806;2022-09-29T01:25:33;4.80;99.90
19348;DHT22;9810;52.480;9.806;2022-09-29T01:28:20;4.90;99.90
19348;DHT22;9810;52.480;9.806;2022-09-29T01:31:07;4.90;99.90
19348;DHT22;9810;52.480;9.806;2022-09-29T01:33:42;4.80;99.90
19348;DHT22;9810;52.480;9.806;2022-09-29T01:36:17;4.70;99.90
19348;DHT22;9810;52.480;9.806;2022-09-29T01:38:54;4.70;99.90
19348;DHT22;9810;52.480;9.806;2022-09-29T01:41:30;4.50;99.90
19348;DHT22;9810;52.480;9.806;2022-09-29T01:44:05;4.70;99.90
19348;DHT22;9810;52.480;9.806;2022-09-29T01:46:38;5.00;99.90
19348;DHT22;9810;52.480;9.806;2022-09-29T01:49:10;5.10;99.90
19348;DHT22;9810;52.480;9.806;2022-09-29T01:51:42;5.20;99.90
19348;DHT22;9810;52.480;9.806;2022-09-29T01:54:14;5.20;99.90
19348;DHT22;9810;52.480;9.806;2022-09-29T01:56:49;5.20;99.90
19348;DHT22;9810;52.480;9.806;2022-09-29T01:59:22;5.20;99.90
19348;DHT22;9810;52.480;9.806;2022-09-29T02:01:56;5.10;99.90
19348;DHT22;9810;52.480;9.806;2022-09-29T02:04:27;4.90;99.90
19348;DHT22;9810;52.480;9.806;2022-09-29T02:06:59;4.70;99.90
19348;DHT22;9810;52.480;9.806;2022-09-29T02:09:32;4.60;99.90
19348;DHT22;9810;52.480;9.806;2022-09-29T02:12:02;4.40;99.90
19348;DHT22;9810;52.480;9.806;2022-09-29T02:14:36;4.30;99.90
19348;DHT22;9810;52.480;9.806;2022-09-29T02:17:08;4.40;99.90
19348;DHT22;9810;52.480;9.806;2022-09-29T02:19:40;4.40;99.90
19348;DHT22;9810;52.480;9.806;2022-09-29T02:22:08;4.30;99.90
19348;DHT22;9810;52.480;9.806;2022-09-29T02:24:35;4.30;99.90
19348;DHT22;9810;52.480;9.806;2022-09-29T02:27:03;4.30;99.90
19348;DHT22;9810;52.480;9.806;2022-09-29T02:29:34;4.20;99.90
19348;DHT22;9810;52.480;9.806;2022-09-29T02:32:04;4.20;99.90
19348;DHT22;9810;52.480;9.806;2022-09-29T02:34:37;4.20;99.90
19348;DHT22;9810;52.480;9.806;2022-09-29T02:37:15;4.20;99.90
19348;DHT22;9810;52.480;9.806;2022-09-29T02:39:53;4.20;99.90
19348;DHT22;9810;52.480;9.806;2022-09-29T02:42:27;4.20;99.90
19348;DHT22;9810;52.480;9.806;2022-09-29T02:45:08;4.20;99.90
19348;DHT22;9810;52.480;9.806;2022-09-29T02:47:50;4.10;99.90
19348;DHT22;9810;52.480;9.806;2022-09-29T02:50:35;4.00;99.90
19348;DHT22;9810;52.480;9.806;2022-09-29T02:53:15;4.30;99.90
19348;DHT22;9810;52.480;9.806;2022-09-29T02:55:53;4.50;99.90
19348;DHT22;9810;52.480;9.806;2022-09-29T02:58:28;4.40;99.90
19348;DHT22;9810;52.480;9.806;2022-09-29T03:00:59;4.50;99.90
19348;DHT22;9810;52.480;9.806;2022-09-29T03:03:28;4.60;99.90
19348;DHT22;9810;52.480;9.806;2022-09-29T03:05:55;4.70;99.90
19348;DHT22;9810;52.480;9.806;2022-09-29T03:08:23;4.60;99.90
19348;DHT22;9810;52.480;9.806;2022-09-29T03:10:50;4.70;99.90
19348;DHT22;9810;52.480;9.806;2022-09-29T03:13:17;4.50;99.90
19348;DHT22;9810;52.480;9.806;2022-09-29T03:15:45;4.30;99.90
19348;DHT22;9810;52.480;9.806;2022-09-29T03:18:11;4.30;99.90
19348;DHT22;9810;52.480;9.806;2022-09-29T03:20:40;4.20;99.90
19348;DHT22;9810;52.480;9.806;2022-09-29T03:23:08;4.10;99.90
19348;DHT22;9810;52.480;9.806;2022-09-29T03:25:35;4.30;99.90
19348;DHT22;9810;52.480;9.806;2022-09-29T03:28:02;4.10;99.90
19348;DHT22;9810;52.480;9.806;2022-09-29T03:30:29;4.00;99.90
19348;DHT22;9810;52.480;9.806;2022-09-29T03:32:58;4.00;99.90
19348;DHT22;9810;52.480;9.806;2022-09-29T03:35:25;4.00;99.90
19348;DHT22;9810;52.480;9.806;2022-09-29T03:37:58;4.30;99.90
19348;DHT22;9810;52.480;9.806;2022-09-29T03:40:26;4.30;99.90
19348;DHT22;9810;52.480;9.806;2022-09-29T03:42:53;4.00;99.90
19348;DHT22;9810;52.480;9.806;2022-09-29T03:45:24;4.20;99.90
19348;DHT22;9810;52.480;9.806;2022-09-29T03:47:51;4.20;99.90
19348;DHT22;9810;52.480;9.806;2022-09-29T03:50:19;4.10;99.90
19348;DHT22;9810;52.480;9.806;2022-09-29T03:52:46;4.00;99.90
19348;DHT22;9810;52.480;9.806;2022-09-29T03:55:15;4.10;99.90
19348;DHT22;9810;52.480;9.806;2022-09-29T03:57:45;4.10;99.90
19348;DHT22;9810;52.480;9.806;2022-09-29T04:00:13;4.10;99.90
19348;DHT22;9810;52.480;9.806;2022-09-29T04:02:41;4.10;99.90
19348;DHT22;9810;52.480;9.806;2022-09-29T04:05:12;4.20;99.90
19348;DHT22;9810;52.480;9.806;2022-09-29T04:07:40;4.00;99.90
19348;DHT22;9810;52.480;9.806;2022-09-29T04:10:08;3.90;99.90
19348;DHT22;9810;52.480;9.806;2022-09-29T04:12:38;4.00;99.90
19348;DHT22;9810;52.480;9.806;2022-09-29T04:15:06;3.90;99.90
19348;DHT22;9810;52.480;9.806;2022-09-29T04:17:34;4.00;99.90
19348;DHT22;9810;52.480;9.806;2022-09-29T04:20:01;4.00;99.90
19348;DHT22;9810;52.480;9.806;2022-09-29T04:22:28;4.20;99.90
19348;DHT22;9810;52.480;9.806;2022-09-29T04:24:56;4.30;99.90
19348;DHT22;9810;52.480;9.806;2022-09-29T04:27:24;4.40;99.90
19348;DHT22;9810;52.480;9.806;2022-09-29T04:29:52;4.40;99.90
19348;DHT22;9810;52.480;9.806;2022-09-29T04:32:20;4.40;99.90
19348;DHT22;9810;52.480;9.806;2022-09-29T04:34:49;4.40;99.90
19348;DHT22;9810;52.480;9.806;2022-09-29T04:37:16;4.30;99.90
19348;DHT22;9810;52.480;9.806;2022-09-29T04:39:43;4.30;99.90
19348;DHT22;9810;52.480;9.806;2022-09-29T04:42:11;4.30;99.90
19348;DHT22;9810;52.480;9.806;2022-09-29T04:44:38;4.40;99.90
19348;DHT22;9810;52.480;9.806;2022-09-29T04:47:07;4.40;99.90
19348;DHT22;9810;52.480;9.806;2022-09-29T04:49:37;4.50;99.90
19348;DHT22;9810;52.480;9.806;2022-09-29T04:52:05;4.60;99.90
19348;DHT22;9810;52.480;9.806;2022-09-29T04:54:32;4.60;99.90
19348;DHT22;9810;52.480;9.806;2022-09-29T04:57:00;4.60;99.90
19348;DHT22;9810;52.480;9.806;2022-09-29T04:59:28;4.80;99.90
19348;DHT22;9810;52.480;9.806;2022-09-29T05:01:56;4.90;99.90
19348;DHT22;9810;52.480;9.806;2022-09-29T05:04:25;5.10;99.90
19348;DHT22;9810;52.480;9.806;2022-09-29T05:06:52;5.10;99.90
19348;DHT22;9810;52.480;9.806;2022-09-29T05:09:20;5.10;99.90
19348;DHT22;9810;52.480;9.806;2022-09-29T05:11:47;5.10;99.90
19348;DHT22;9810;52.480;9.806;2022-09-29T05:14:14;5.00;99.90
19348;DHT22;9810;52.480;9.806;2022-09-29T05:16:41;5.00;99.90
19348;DHT22;9810;52.480;9.806;2022-09-29T05:19:08;5.00;99.90
19348;DHT22;9810;52.480;9.806;2022-09-29T05:21:38;4.80;99.90
19348;DHT22;9810;52.480;9.806;2022-09-29T05:24:06;4.80;99.90
19348;DHT22;9810;52.480;9.806;2022-09-29T05:26:33;4.70;99.90
19348;DHT22;9810;52.480;9.806;2022-09-29T05:29:01;4.90;99.90
19348;DHT22;9810;52.480;9.806;2022-09-29T05:31:28;5.00;99.90
19348;DHT22;9810;52.480;9.806;2022-09-29T05:33:55;5.20;99.90
19348;DHT22;9810;52.480;9.806;2022-09-29T05:36:23;5.20;99.90
19348;DHT22;9810;52.480;9.806;2022-09-29T05:38:52;5.20;99.90
19348;DHT22;9810;52.480;9.806;2022-09-29T05:41:20;5.20;99.90
19348;DHT22;9810;52.480;9.806;2022-09-29T05:43:48;5.00;99.90
19348;DHT22;9810;52.480;9.806;2022-09-29T05:46:18;4.90;99.90
19348;DHT22;9810;52.480;9.806;2022-09-29T05:48:46;5.00;99.90
19348;DHT22;9810;52.480;9.806;2022-09-29T05:51:15;5.20;99.90
19348;DHT22;9810;52.480;9.806;2022-09-29T05:53:43;5.50;99.90
19348;DHT22;9810;52.480;9.806;2022-09-29T05:56:13;5.50;99.90
19348;DHT22;9810;52.480;9.806;2022-09-29T05:58:41;5.50;99.90
19348;DHT22;9810;52.480;9.806;2022-09-29T06:01:10;5.50;99.90
19348;DHT22;9810;52.480;9.806;2022-09-29T06:03:38;5.40;99.90
19348;DHT22;9810;52.480;9.806;2022-09-29T06:06:09;5.40;99.90
19348;DHT22;9810;52.480;9.806;2022-09-29T06:08:37;5.40;99.90
19348;DHT22;9810;52.480;9.806;2022-09-29T06:11:06;5.40;99.90
19348;DHT22;9810;52.480;9.806;2022-09-29T06:13:36;5.60;99.90
19348;DHT22;9810;52.480;9.806;2022-09-29T06:16:04;5.90;99.90
19348;DHT22;9810;52.480;9.806;2022-09-29T06:18:31;6.00;99.90
19348;DHT22;9810;52.480;9.806;2022-09-29T06:21:02;6.10;99.90
19348;DHT22;9810;52.480;9.806;2022-09-29T06:23:30;6.00;99.90
19348;DHT22;9810;52.480;9.806;2022-09-29T06:25:59;6.00;99.90
19348;DHT22;9810;52.480;9.806;2022-09-29T06:28:35;6.00;99.90
19348;DHT22;9810;52.480;9.806;2022-09-29T06:31:04;6.20;99.90
19348;DHT22;9810;52.480;9.806;2022-09-29T06:33:33;6.20;99.90
19348;DHT22;9810;52.480;9.806;2022-09-29T06:36:03;6.30;99.90
19348;DHT22;9810;52.480;9.806;2022-09-29T06:38:48;6.50;99.90
19348;DHT22;9810;52.480;9.806;2022-09-29T06:41:15;6.70;99.90
19348;DHT22;9810;52.480;9.806;2022-09-29T06:43:45;6.90;99.90
19348;DHT22;9810;52.480;9.806;2022-09-29T06:46:13;7.00;99.90
19348;DHT22;9810;52.480;9.806;2022-09-29T06:48:39;7.20;99.90
19348;DHT22;9810;52.480;9.806;2022-09-29T06:51:07;7.40;99.90
19348;DHT22;9810;52.480;9.806;2022-09-29T06:53:34;7.40;99.90
19348;DHT22;9810;52.480;9.806;2022-09-29T06:56:02;7.40;99.90
19348;DHT22;9810;52.480;9.806;2022-09-29T06:58:29;7.70;99.90
19348;DHT22;9810;52.480;9.806;2022-09-29T07:01:00;7.80;99.90
19348;DHT22;9810;52.480;9.806;2022-09-29T07:03:29;8.00;99.90
19348;DHT22;9810;52.480;9.806;2022-09-29T07:05:56;8.20;99.90
19348;DHT22;9810;52.480;9.806;2022-09-29T07:08:23;8.30;99.90
19348;DHT22;9810;52.480;9.806;2022-09-29T07:10:50;8.50;99.90
19348;DHT22;9810;52.480;9.806;2022-09-29T07:13:17;8.70;99.90
19348;DHT22;9810;52.480;9.806;2022-09-29T07:15:45;8.90;99.90
19348;DHT22;9810;52.480;9.806;2022-09-29T07:18:15;8.90;99.90
19348;DHT22;9810;52.480;9.806;2022-09-29T07:20:43;9.10;99.90
19348;DHT22;9810;52.480;9.806;2022-09-29T07:23:10;9.30;99.90
19348;DHT22;9810;52.480;9.806;2022-09-29T07:25:38;9.60;99.90
19348;DHT22;9810;52.480;9.806;2022-09-29T07:28:05;9.80;99.90
19348;DHT22;9810;52.480;9.806;2022-09-29T07:30:36;10.00;99.90
19348;DHT22;9810;52.480;9.806;2022-09-29T07:33:04;10.20;99.90
19348;DHT22;9810;52.480;9.806;2022-09-29T07:35:37;10.50;99.90
19348;DHT22;9810;52.480;9.806;2022-09-29T07:38:06;10.80;99.90
19348;DHT22;9810;52.480;9.806;2022-09-29T07:40:53;11.00;99.90
19348;DHT22;9810;52.480;9.806;2022-09-29T07:43:21;11.10;99.90
19348;DHT22;9810;52.480;9.806;2022-09-29T07:46:16;11.30;99.90
19348;DHT22;9810;52.480;9.806;2022-09-29T07:48:45;11.70;99.90
19348;DHT22;9810;52.480;9.806;2022-09-29T07:51:19;12.10;99.90
19348;DHT22;9810;52.480;9.806;2022-09-29T07:53:48;12.50;99.90
19348;DHT22;9810;52.480;9.806;2022-09-29T07:56:20;13.20;99.90
19348;DHT22;9810;52.480;9.806;2022-09-29T07:59:04;14.10;99.90
19348;DHT22;9810;52.480;9.806;2022-09-29T08:01:35;15.60;99.90
19348;DHT22;9810;52.480;9.806;2022-09-29T08:04:11;17.00;99.90
19348;DHT22;9810;52.480;9.806;2022-09-29T08:06:49;18.10;99.90
19348;DHT22;9810;52.480;9.806;2022-09-29T08:09:20;19.00;99.90
19348;DHT22;9810;52.480;9.806;2022-09-29T08:11:51;19.40;99.90
19348;DHT22;9810;52.480;9.806;2022-09-29T08:14:22;19.20;99.90
19348;DHT22;9810;52.480;9.806;2022-09-29T08:16:49;18.70;99.90
19348;DHT22;9810;52.480;9.806;2022-09-29T08:19:36;18.80;99.90
19348;DHT22;9810;52.480;9.806;2022-09-29T08:22:32;18.90;99.90
19348;DHT22;9810;52.480;9.806;2022-09-29T08:25:02;19.20;99.90
19348;DHT22;9810;52.480;9.806;2022-09-29T08:27:29;19.30;99.90
19348;DHT22;9810;52.480;9.806;2022-09-29T08:29:59;19.50;99.90
19348;DHT22;9810;52.480;9.806;2022-09-29T08:32:26;19.60;99.90
19348;DHT22;9810;52.480;9.806;2022-09-29T08:34:54;20.00;99.90
19348;DHT22;9810;52.480;9.806;2022-09-29T08:37:21;20.00;99.90
19348;DHT22;9810;52.480;9.806;2022-09-29T08:39:50;20.20;99.90
19348;DHT22;9810;52.480;9.806;2022-09-29T08:42:26;19.60;99.90
19348;DHT22;9810;52.480;9.806;2022-09-29T08:44:58;20.50;99.90
19348;DHT22;9810;52.480;9.806;2022-09-29T08:47:30;19.90;99.90
19348;DHT22;9810;52.480;9.806;2022-09-29T08:50:02;19.30;99.90
19348;DHT22;9810;52.480;9.806;2022-09-29T08:52:33;19.70;99.90
19348;DHT22;9810;52.480;9.806;2022-09-29T08:55:21;20.00;99.90
19348;DHT22;9810;52.480;9.806;2022-09-29T08:57:56;19.60;99.90
19348;DHT22;9810;52.480;9.806;2022-09-29T09:00:31;19.60;99.90
19348;DHT22;9810;52.480;9.806;2022-09-29T09:03:13;19.90;99.90
19348;DHT22;9810;52.480;9.806;2022-09-29T09:06:09;20.50;99.90
19348;DHT22;9810;52.480;9.806;2022-09-29T09:08:55;19.60;99.90
19348;DHT22;9810;52.480;9.806;2022-09-29T09:11:36;21.10;99.90
19348;DHT22;9810;52.480;9.806;2022-09-29T09:14:14;21.50;99.90
19348;DHT22;9810;52.480;9.806;2022-09-29T09:16:53;21.10;99.90
19348;DHT22;9810;52.480;9.806;2022-09-29T09:22:46;20.50;99.90
19348;DHT22;9810;52.480;9.806;2022-09-29T09:25:28;21.50;99.90
19348;DHT22;9810;52.480;9.806;2022-09-29T09:35:23;22.80;99.90
19348;DHT22;9810;52.480;9.806;2022-09-29T09:38:00;21.60;99.90
19348;DHT22;9810;52.480;9.806;2022-09-29T09:41:11;22.00;99.90
19348;DHT22;9810;52.480;9.806;2022-09-29T09:44:00;22.30;99.90
19348;DHT22;9810;52.480;9.806;2022-09-29T09:46:36;22.50;99.90
19348;DHT22;9810;52.480;9.806;2022-09-29T09:49:12;22.70;99.90
19348;DHT22;9810;52.480;9.806;2022-09-29T09:51:45;22.00;99.90
19348;DHT22;9810;52.480;9.806;2022-09-29T09:54:23;22.00;99.90
19348;DHT22;9810;52.480;9.806;2022-09-29T10:00:09;21.20;99.90
19348;DHT22;9810;52.480;9.806;2022-09-29T10:02:42;21.00;99.90
19348;DHT22;9810;52.480;9.806;2022-09-29T10:05:12;20.30;99.90
19348;DHT22;9810;52.480;9.806;2022-09-29T10:07:43;21.30;99.90
19348;DHT22;9810;52.480;9.806;2022-09-29T10:10:17;21.10;99.90
19348;DHT22;9810;52.480;9.806;2022-09-29T10:12:55;21.10;99.90
19348;DHT22;9810;52.480;9.806;2022-09-29T10:15:27;20.90;99.90
19348;DHT22;9810;52.480;9.806;2022-09-29T10:18:05;21.10;99.90
19348;DHT22;9810;52.480;9.806;2022-09-29T10:20:36;21.40;99.90
19348;DHT22;9810;52.480;9.806;2022-09-29T10:23:25;21.60;99.90
19348;DHT22;9810;52.480;9.806;2022-09-29T10:25:56;22.10;99.90
19348;DHT22;9810;52.480;9.806;2022-09-29T10:28:26;23.20;99.90
19348;DHT22;9810;52.480;9.806;2022-09-29T10:30:57;22.70;99.90
19348;DHT22;9810;52.480;9.806;2022-09-29T10:33:25;22.10;99.90
19348;DHT22;9810;52.480;9.806;2022-09-29T10:36:06;24.20;99.90
19348;DHT22;9810;52.480;9.806;2022-09-29T10:38:38;24.70;99.90
19348;DHT22;9810;52.480;9.806;2022-09-29T10:41:06;22.60;99.90
19348;DHT22;9810;52.480;9.806;2022-09-29T10:43:36;22.60;99.90
19348;DHT22;9810;52.480;9.806;2022-09-29T10:46:04;21.40;99.90
19348;DHT22;9810;52.480;9.806;2022-09-29T10:48:32;20.70;99.90
19348;DHT22;9810;52.480;9.806;2022-09-29T10:51:01;19.90;99.90
19348;DHT22;9810;52.480;9.806;2022-09-29T10:53:46;18.90;99.90
19348;DHT22;9810;52.480;9.806;2022-09-29T10:56:16;19.30;99.90
19348;DHT22;9810;52.480;9.806;2022-09-29T10:58:52;20.90;99.90
19348;DHT22;9810;52.480;9.806;2022-09-29T11:01:21;19.20;99.90
19348;DHT22;9810;52.480;9.806;2022-09-29T11:03:52;20.60;99.90
19348;DHT22;9810;52.480;9.806;2022-09-29T11:06:29;21.30;99.90
19348;DHT22;9810;52.480;9.806;2022-09-29T11:09:00;21.30;99.90
19348;DHT22;9810;52.480;9.806;2022-09-29T11:11:32;21.80;99.90
19348;DHT22;9810;52.480;9.806;2022-09-29T11:14:00;22.30;99.90
19348;DHT22;9810;52.480;9.806;2022-09-29T11:16:30;22.10;99.90
19348;DHT22;9810;52.480;9.806;2022-09-29T11:19:02;22.50;99.90
19348;DHT22;9810;52.480;9.806;2022-09-29T11:22:11;22.10;99.90
19348;DHT22;9810;52.480;9.806;2022-09-29T11:25:06;20.50;99.90
19348;DHT22;9810;52.480;9.806;2022-09-29T11:27:52;19.40;99.90
19348;DHT22;9810;52.480;9.806;2022-09-29T11:30:51;19.00;99.90
19348;DHT22;9810;52.480;9.806;2022-09-29T11:33:41;19.20;99.90
19348;DHT22;9810;52.480;9.806;2022-09-29T11:36:19;19.90;99.90
19348;DHT22;9810;52.480;9.806;2022-09-29T11:39:00;21.10;99.90
19348;DHT22;9810;52.480;9.806;2022-09-29T11:41:49;21.20;99.90
19348;DHT22;9810;52.480;9.806;2022-09-29T11:44:50;21.20;99.90
19348;DHT22;9810;52.480;9.806;2022-09-29T11:47:47;19.70;99.90
19348;DHT22;9810;52.480;9.806;2022-09-29T11:50:27;19.10;99.90
19348;DHT22;9810;52.480;9.806;2022-09-29T11:53:13;19.20;99.90
19348;DHT22;9810;52.480;9.806;2022-09-29T11:56:03;19.20;99.90
19348;DHT22;9810;52.480;9.806;2022-09-29T11:58:44;18.80;99.90
19348;DHT22;9810;52.480;9.806;2022-09-29T12:01:29;18.60;99.90
19348;DHT22;9810;52.480;9.806;2022-09-29T12:04:13;18.20;99.90
19348;DHT22;9810;52.480;9.806;2022-09-29T12:06:53;17.60;99.90
19348;DHT22;9810;52.480;9.806;2022-09-29T12:09:52;17.40;99.90
19348;DHT22;9810;52.480;9.806;2022-09-29T12:12:26;17.40;99.90
19348;DHT22;9810;52.480;9.806;2022-09-29T12:15:17;17.50;99.90
19348;DHT22;9810;52.480;9.806;2022-09-29T12:17:53;17.00;99.90
19348;DHT22;9810;52.480;9.806;2022-09-29T12:20:25;17.40;99.90
19348;DHT22;9810;52.480;9.806;2022-09-29T12:22:56;17.40;99.90
19348;DHT22;9810;52.480;9.806;2022-09-29T12:25:28;17.10;99.90
19348;DHT22;9810;52.480;9.806;2022-09-29T12:27:59;17.00;99.90
19348;DHT22;9810;52.480;9.806;2022-09-29T12:30:36;16.70;99.90
19348;DHT22;9810;52.480;9.806;2022-09-29T12:33:14;16.60;99.90
19348;DHT22;9810;52.480;9.806;2022-09-29T12:35:47;16.60;99.90
19348;DHT22;9810;52.480;9.806;2022-09-29T12:38:20;16.50;99.90
19348;DHT22;9810;52.480;9.806;2022-09-29T12:41:03;16.30;99.90
19348;DHT22;9810;52.480;9.806;2022-09-29T12:43:36;15.90;99.90
19348;DHT22;9810;52.480;9.806;2022-09-29T12:46:14;15.90;99.90
19348;DHT22;9810;52.480;9.806;2022-09-29T12:48:50;15.80;99.90
19348;DHT22;9810;52.480;9.806;2022-09-29T12:51:25;15.70;99.90
19348;DHT22;9810;52.480;9.806;2022-09-29T12:54:02;15.70;99.90
19348;DHT22;9810;52.480;9.806;2022-09-29T12:56:35;15.80;99.90
19348;DHT22;9810;52.480;9.806;2022-09-29T12:59:06;15.70;99.90
19348;DHT22;9810;52.480;9.806;2022-09-29T13:01:37;15.70;99.90
19348;DHT22;9810;52.480;9.806;2022-09-29T13:04:37;15.80;99.90
19348;DHT22;9810;52.480;9.806;2022-09-29T13:10:21;15.70;99.90
19348;DHT22;9810;52.480;9.806;2022-09-29T13:16:04;15.50;99.90
19348;DHT22;9810;52.480;9.806;2022-09-29T13:18:51;15.50;99.90
19348;DHT22;9810;52.480;9.806;2022-09-29T13:21:26;15.60;99.90
19348;DHT22;9810;52.480;9.806;2022-09-29T13:24:15;15.40;99.90
19348;DHT22;9810;52.480;9.806;2022-09-29T13:27:04;15.40;99.90
19348;DHT22;9810;52.480;9.806;2022-09-29T13:29:40;15.60;99.90
19348;DHT22;9810;52.480;9.806;2022-09-29T13:32:10;15.50;99.90
19348;DHT22;9810;52.480;9.806;2022-09-29T13:34:46;15.80;99.90
19348;DHT22;9810;52.480;9.806;2022-09-29T13:37:16;15.60;99.90
19348;DHT22;9810;52.480;9.806;2022-09-29T13:39:55;15.60;99.90
19348;DHT22;9810;52.480;9.806;2022-09-29T13:42:37;15.60;99.90
19348;DHT22;9810;52.480;9.806;2022-09-29T13:45:15;15.80;99.90
19348;DHT22;9810;52.480;9.806;2022-09-29T13:47:49;16.00;99.90
19348;DHT22;9810;52.480;9.806;2022-09-29T13:50:41;16.00;99.90
19348;DHT22;9810;52.480;9.806;2022-09-29T13:53:33;15.90;99.90
19348;DHT22;9810;52.480;9.806;2022-09-29T13:56:10;15.60;99.90
19348;DHT22;9810;52.480;9.806;2022-09-29T13:58:57;15.40;99.90
19348;DHT22;9810;52.480;9.806;2022-09-29T14:01:32;15.30;99.90
19348;DHT22;9810;52.480;9.806;2022-09-29T14:04:34;15.10;99.90
19348;DHT22;9810;52.480;9.806;2022-09-29T14:10:38;15.30;99.90
19348;DHT22;9810;52.480;9.806;2022-09-29T14:13:13;15.30;99.90
19348;DHT22;9810;52.480;9.806;2022-09-29T14:15:49;15.50;99.90
19348;DHT22;9810;52.480;9.806;2022-09-29T14:18:43;15.70;99.90
19348;DHT22;9810;52.480;9.806;2022-09-29T14:21:43;15.90;99.90
19348;DHT22;9810;52.480;9.806;2022-09-29T14:24:03;16.00;99.90
19348;DHT22;9810;52.480;9.806;2022-09-29T14:26:46;16.10;99.90
19348;DHT22;9810;52.480;9.806;2022-09-29T14:29:17;15.90;99.90
19348;DHT22;9810;52.480;9.806;2022-09-29T14:31:49;16.00;99.90
19348;DHT22;9810;52.480;9.806;2022-09-29T14:34:19;16.00;99.90
19348;DHT22;9810;52.480;9.806;2022-09-29T14:36:48;15.90;99.90
19348;DHT22;9810;52.480;9.806;2022-09-29T14:39:17;15.90;99.90
19348;DHT22;9810;52.480;9.806;2022-09-29T14:41:49;15.80;99.90
19348;DHT22;9810;52.480;9.806;2022-09-29T14:44:19;15.90;99.90
19348;DHT22;9810;52.480;9.806;2022-09-29T14:47:06;15.80;99.90
19348;DHT22;9810;52.480;9.806;2022-09-29T14:56:16;15.60;99.90
19348;DHT22;9810;52.480;9.806;2022-09-29T14:58:59;15.50;99.90
19348;DHT22;9810;52.480;9.806;2022-09-29T15:01:29;15.50;99.90
19348;DHT22;9810;52.480;9.806;2022-09-29T15:04:03;15.30;99.90
19348;DHT22;9810;52.480;9.806;2022-09-29T15:06:31;15.30;99.90
19348;DHT22;9810;52.480;9.806;2022-09-29T15:09:00;15.20;99.90
19348;DHT22;9810;52.480;9.806;2022-09-29T15:11:33;15.30;99.90
19348;DHT22;9810;52.480;9.806;2022-09-29T15:14:21;15.30;99.90
19348;DHT22;9810;52.480;9.806;2022-09-29T15:16:54;15.40;99.90
19348;DHT22;9810;52.480;9.806;2022-09-29T15:19:46;15.60;99.90
19348;DHT22;9810;52.480;9.806;2022-09-29T15:22:27;15.30;99.90
19348;DHT22;9810;52.480;9.806;2022-09-29T15:25:09;15.30;99.90
19348;DHT22;9810;52.480;9.806;2022-09-29T15:27:45;14.80;99.90
19348;DHT22;9810;52.480;9.806;2022-09-29T15:30:17;14.90;99.90
19348;DHT22;9810;52.480;9.806;2022-09-29T15:32:46;15.20;99.90
19348;DHT22;9810;52.480;9.806;2022-09-29T15:35:19;15.00;99.90
19348;DHT22;9810;52.480;9.806;2022-09-29T15:37:55;14.80;99.90
19348;DHT22;9810;52.480;9.806;2022-09-29T15:40:34;14.60;99.90
19348;DHT22;9810;52.480;9.806;2022-09-29T15:43:08;14.50;99.90
19348;DHT22;9810;52.480;9.806;2022-09-29T15:45:53;14.40;99.90
19348;DHT22;9810;52.480;9.806;2022-09-29T15:48:23;14.50;99.90
19348;DHT22;9810;52.480;9.806;2022-09-29T15:50:50;14.50;99.90
19348;DHT22;9810;52.480;9.806;2022-09-29T15:53:20;14.50;99.90
19348;DHT22;9810;52.480;9.806;2022-09-29T15:55:50;14.50;99.90
19348;DHT22;9810;52.480;9.806;2022-09-29T15:58:35;14.50;99.90
19348;DHT22;9810;52.480;9.806;2022-09-29T16:01:05;14.40;99.90
19348;DHT22;9810;52.480;9.806;2022-09-29T16:06:27;14.50;99.90
19348;DHT22;9810;52.480;9.806;2022-09-29T16:09:01;14.60;99.90
19348;DHT22;9810;52.480;9.806;2022-09-29T16:11:31;14.50;99.90
19348;DHT22;9810;52.480;9.806;2022-09-29T16:14:03;14.40;99.90
19348;DHT22;9810;52.480;9.806;2022-09-29T16:16:36;14.10;99.90
19348;DHT22;9810;52.480;9.806;2022-09-29T16:19:20;13.90;99.90
19348;DHT22;9810;52.480;9.806;2022-09-29T16:21:52;13.80;99.90
19348;DHT22;9810;52.480;9.806;2022-09-29T16:24:27;13.50;99.90
19348;DHT22;9810;52.480;9.806;2022-09-29T16:26:56;13.40;99.90
19348;DHT22;9810;52.480;9.806;2022-09-29T16:29:33;13.10;99.90
19348;DHT22;9810;52.480;9.806;2022-09-29T16:32:36;12.90;99.90
19348;DHT22;9810;52.480;9.806;2022-09-29T16:38:19;12.80;99.90
19348;DHT22;9810;52.480;9.806;2022-09-29T16:40:47;12.50;99.90
19348;DHT22;9810;52.480;9.806;2022-09-29T16:43:27;12.40;99.90
19348;DHT22;9810;52.480;9.806;2022-09-29T16:45:57;12.40;99.90
19348;DHT22;9810;52.480;9.806;2022-09-29T16:48:37;12.50;99.90
19348;DHT22;9810;52.480;9.806;2022-09-29T16:51:29;12.30;99.90
19348;DHT22;9810;52.480;9.806;2022-09-29T16:53:58;11.80;99.90
19348;DHT22;9810;52.480;9.806;2022-09-29T16:56:28;11.60;99.90
19348;DHT22;9810;52.480;9.806;2022-09-29T16:59:05;11.20;99.90
19348;DHT22;9810;52.480;9.806;2022-09-29T17:01:36;11.10;99.90
19348;DHT22;9810;52.480;9.806;2022-09-29T17:04:05;11.10;99.90
19348;DHT22;9810;52.480;9.806;2022-09-29T17:06:32;10.90;99.90
19348;DHT22;9810;52.480;9.806;2022-09-29T17:08:59;10.70;99.90
19348;DHT22;9810;52.480;9.806;2022-09-29T17:11:27;10.50;99.90
19348;DHT22;9810;52.480;9.806;2022-09-29T17:13:54;10.30;99.90